createdAt,value
2018-10-19T00:05:18.920Z,3.28
2018-10-19T00:16:20.796Z,3.28
2018-10-19T00:27:22.284Z,3.28
2018-10-19T00:38:25.758Z,3.27
2018-10-19T00:49:24.821Z,3.27
2018-10-19T01:00:26.500Z,3.27
2018-10-19T01:11:29.228Z,3.27
2018-10-19T01:22:31.352Z,3.26
2018-10-19T01:33:33.368Z,3.26
2018-10-19T01:44:35.972Z,3.26
2018-10-19T01:55:38.063Z,3.25
2018-10-19T02:06:40.383Z,3.25
2018-10-19T02:17:42.736Z,3.25
2018-10-19T02:28:43.423Z,3.25
2018-10-19T02:39:43.868Z,3.25
2018-10-19T02:50:42.464Z,3.25
2018-10-19T03:01:44.263Z,3.24
2018-10-19T03:12:46.736Z,3.23
2018-10-19T03:23:49.218Z,3.23
2018-10-19T03:34:51.990Z,3.23
2018-10-19T03:45:54.923Z,3.23
2018-10-19T03:56:56.945Z,3.23
2018-10-19T04:07:58.459Z,3.22
2018-10-19T04:19:01.606Z,3.22
2018-10-19T04:30:03.614Z,3.22
2018-10-19T04:41:05.957Z,3.22
2018-10-19T04:52:06.067Z,3.22
2018-10-19T05:03:09.026Z,3.21
2018-10-19T05:14:11.612Z,3.21
2018-10-19T05:25:13.468Z,3.21
2018-10-19T05:36:11.926Z,3.21
2018-10-19T05:47:14.069Z,3.21
2018-10-19T05:58:14.141Z,3.21
2018-10-19T06:09:17.319Z,3.22
2018-10-19T06:20:19.636Z,3.23
2018-10-19T06:31:21.988Z,3.24
2018-10-19T06:42:24.239Z,3.25
2018-10-19T06:53:26.956Z,3.27
2018-10-19T07:04:29.199Z,3.29
2018-10-19T07:15:30.056Z,3.32
2018-10-19T07:26:33.082Z,3.33
2018-10-19T07:37:35.618Z,3.33
2018-10-19T07:48:36.211Z,3.33
2018-10-19T07:59:38.167Z,3.34
2018-10-19T08:10:40.085Z,3.34
2018-10-19T08:21:40.121Z,3.36
2018-10-19T08:32:42.378Z,3.37
2018-10-19T08:43:43.747Z,3.37
2018-10-19T08:54:43.059Z,3.39
2018-10-19T09:05:44.792Z,3.39
2018-10-19T09:16:42.972Z,3.40
2018-10-19T09:27:44.228Z,3.43
2018-10-19T09:38:46.796Z,3.43
2018-10-19T09:49:48.108Z,3.44
2018-10-19T10:00:47.091Z,3.41
2018-10-19T10:11:49.333Z,3.41
2018-10-19T10:22:51.414Z,3.41
2018-10-19T10:33:53.451Z,3.41
2018-10-19T10:44:54.449Z,3.40
2018-10-19T10:55:46.913Z,3.40
2018-10-19T11:06:48.763Z,3.40
2018-10-19T11:17:51.075Z,3.40
2018-10-19T11:28:52.777Z,3.40
2018-10-19T11:39:48.278Z,3.41
2018-10-19T11:50:47.290Z,3.41
2018-10-19T12:01:38.614Z,3.40
2018-10-19T12:12:40.414Z,3.41
2018-10-19T12:23:41.529Z,3.41
2018-10-19T12:34:44.655Z,3.40
2018-10-19T12:45:43.868Z,3.40
2018-10-19T12:56:45.366Z,3.41
2018-10-19T13:07:38.869Z,3.40
2018-10-19T13:18:34.118Z,3.44
2018-10-19T13:29:27.734Z,3.44
2018-10-19T13:40:22.051Z,3.42
2018-10-19T13:51:10.425Z,3.42
2018-10-19T14:02:02.293Z,3.41
2018-10-19T14:12:53.112Z,3.41
2018-10-19T14:23:46.454Z,3.42
2018-10-19T14:34:40.609Z,3.44
2018-10-19T14:45:35.289Z,3.43
2018-10-19T14:56:28.133Z,3.43
2018-10-19T15:07:19.651Z,3.42
2018-10-19T15:18:03.768Z,3.41
2018-10-19T15:29:02.381Z,3.40
2018-10-19T15:39:58.703Z,3.40
2018-10-19T15:50:58.791Z,3.39
2018-10-19T16:01:32.511Z,3.38
2018-10-19T16:12:27.050Z,3.37
2018-10-19T16:23:14.656Z,3.37
2018-10-19T16:34:08.235Z,3.36
2018-10-19T16:45:08.192Z,3.36
2018-10-19T16:56:06.048Z,3.36
2018-10-19T17:06:53.973Z,3.35
2018-10-19T17:17:50.885Z,3.34
2018-10-19T17:28:44.909Z,3.34
2018-10-19T17:39:41.800Z,3.34
2018-10-19T17:50:38.561Z,3.34
2018-10-19T18:01:37.599Z,3.33
2018-10-19T18:12:17.572Z,3.33
2018-10-19T18:23:00.192Z,3.32
2018-10-19T18:33:41.568Z,3.32
2018-10-19T18:44:28.410Z,3.31
2018-10-19T18:55:21.296Z,3.30
2018-10-19T19:06:12.447Z,3.30
2018-10-19T19:17:04.834Z,3.30
2018-10-19T19:27:56.605Z,3.29
2018-10-19T19:38:51.985Z,3.29
2018-10-19T19:49:37.748Z,3.29
2018-10-19T20:00:36.610Z,3.29
2018-10-19T20:11:34.862Z,3.28
2018-10-19T20:22:25.380Z,3.28
2018-10-19T20:33:16.192Z,3.28
2018-10-19T20:43:50.602Z,3.27
2018-10-19T20:54:39.746Z,3.27
2018-10-19T21:05:39.418Z,3.27
2018-10-19T21:16:40.140Z,3.27
2018-10-19T21:27:39.650Z,3.26
2018-10-19T21:38:38.846Z,3.26
2018-10-19T21:49:37.322Z,3.26
2018-10-19T22:00:34.174Z,3.26
2018-10-19T22:11:34.512Z,3.25
2018-10-19T22:22:31.756Z,3.25
2018-10-19T22:33:27.550Z,3.25
2018-10-19T22:44:29.278Z,3.25
2018-10-19T22:55:26.178Z,3.25
2018-10-19T23:06:24.539Z,3.25
2018-10-19T23:17:26.545Z,3.24
2018-10-19T23:28:26.077Z,3.24
2018-10-19T23:39:27.765Z,3.24
2018-10-19T23:50:28.151Z,3.23
